Time;durP1;ratioP1;P1;durP2;ratioP2;P2;SDS_P1;SDS_P2;PMS_P1;PMS_P2;Temp;Humidity;BMP_temperature;BMP_pressure;BME280_temperature;BME280_humidity;BME280_pressure;Samples;Min_cycle;Max_cycle;Signal;HPM_P1;HPM_P2
2022/07/07 00:01:46;;;;;;;7.63;6.73;;;;;;;;;;5092378;28;20209;-50
2022/07/07 00:04:12;;;;;;;8.23;6.30;;;;;;;;;;5096366;28;20248;-50
2022/07/07 00:06:38;;;;;;;10.00;6.87;;;;;;;;;;5095952;28;20314;-50
2022/07/07 00:09:04;;;;;;;6.63;5.90;;;;;;;;;;5096132;28;20278;-50
2022/07/07 00:11:30;;;;;;;8.50;6.87;;;;;;;;;;5096102;28;20224;-50
2022/07/07 00:13:56;;;;;;;7.60;6.20;;;;;;;;;;5095671;28;20199;-50
2022/07/07 00:16:22;;;;;;;7.60;6.03;;;;;;;;;;5095518;28;20190;-50
2022/07/07 00:18:50;;;;;;;9.77;6.50;;;;;;;;;;5095289;28;20202;-50
2022/07/07 00:21:16;;;;;;;7.13;6.17;;;;;;;;;;5096097;28;20238;-50
2022/07/07 00:23:42;;;;;;;9.90;6.83;;;;;;;;;;5095850;28;20226;-50
2022/07/07 00:26:08;;;;;;;7.13;6.43;;;;;;;;;;5095262;28;20251;-50
2022/07/07 00:28:34;;;;;;;10.37;6.80;;;;;;;;;;5095744;28;20597;-50
2022/07/07 00:31:01;;;;;;;9.73;5.63;;;;;;;;;;5095667;28;20209;-50
2022/07/07 00:33:27;;;;;;;8.43;6.70;;;;;;;;;;5095723;28;20229;-50
2022/07/07 00:35:54;;;;;;;7.50;6.10;;;;;;;;;;5095408;28;20323;-50
2022/07/07 00:38:20;;;;;;;7.90;6.30;;;;;;;;;;5095533;28;20576;-48
2022/07/07 00:40:49;;;;;;;7.97;6.00;;;;;;;;;;5095538;28;20259;-48
2022/07/07 00:43:15;;;;;;;6.83;5.67;;;;;;;;;;5095626;28;20243;-48
2022/07/07 00:45:41;;;;;;;8.83;6.50;;;;;;;;;;5095447;28;20199;-49
2022/07/07 00:48:08;;;;;;;8.50;6.20;;;;;;;;;;5095187;28;20222;-50
2022/07/07 00:50:35;;;;;;;7.20;6.47;;;;;;;;;;5095433;28;20199;-50
2022/07/07 00:53:02;;;;;;;6.90;6.20;;;;;;;;;;5095303;28;20209;-50
2022/07/07 00:55:28;;;;;;;11.27;6.63;;;;;;;;;;5095329;28;20215;-49
2022/07/07 00:57:54;;;;;;;6.37;5.73;;;;;;;;;;5095195;28;20249;-48
2022/07/07 01:00:20;;;;;;;16.07;6.93;;;;;;;;;;5095081;28;20214;-49
2022/07/07 01:02:46;;;;;;;8.93;6.33;;;;;;;;;;5094990;28;20199;-49
2022/07/07 01:05:12;;;;;;;9.73;6.73;;;;;;;;;;5095136;28;20214;-50
2022/07/07 01:07:38;;;;;;;9.53;6.73;;;;;;;;;;5094922;28;20223;-50
2022/07/07 01:10:07;;;;;;;6.77;6.20;;;;;;;;;;5095033;28;20191;-50
2022/07/07 01:12:34;;;;;;;7.77;6.70;;;;;;;;;;5095005;28;20248;-50
2022/07/07 01:15:00;;;;;;;12.00;7.17;;;;;;;;;;5094753;28;20723;-50
2022/07/07 01:17:26;;;;;;;7.87;6.97;;;;;;;;;;5094932;28;20195;-50
2022/07/07 01:19:52;;;;;;;9.67;6.63;;;;;;;;;;5094376;28;20320;-49
2022/07/07 01:22:18;;;;;;;9.97;7.37;;;;;;;;;;5095005;28;20199;-50
2022/07/07 01:24:45;;;;;;;7.67;6.83;;;;;;;;;;5094636;28;20190;-49
2022/07/07 01:27:13;;;;;;;13.03;6.93;;;;;;;;;;5094629;28;20254;-50
2022/07/07 01:29:40;;;;;;;7.40;6.67;;;;;;;;;;5094452;28;20221;-49
2022/07/07 01:32:08;;;;;;;10.73;7.13;;;;;;;;;;5092854;28;20603;-50
2022/07/07 01:34:34;;;;;;;8.60;7.63;;;;;;;;;;5094601;28;20270;-49
2022/07/07 01:37:00;;;;;;;7.83;7.07;;;;;;;;;;5094485;28;20290;-51
2022/07/07 01:39:26;;;;;;;9.47;6.73;;;;;;;;;;5094525;28;20203;-50
2022/07/07 01:41:53;;;;;;;7.93;6.70;;;;;;;;;;5094396;28;20543;-49
2022/07/07 01:44:19;;;;;;;7.93;7.17;;;;;;;;;;5094394;28;20336;-48
2022/07/07 01:46:45;;;;;;;8.10;7.30;;;;;;;;;;5094216;28;20320;-49
2022/07/07 01:49:11;;;;;;;11.70;7.63;;;;;;;;;;5094282;28;20187;-50
2022/07/07 01:51:37;;;;;;;13.17;7.40;;;;;;;;;;5094166;28;20282;-49
2022/07/07 01:54:03;;;;;;;10.43;8.83;;;;;;;;;;5094371;28;20225;-50
2022/07/07 01:56:29;;;;;;;9.57;7.57;;;;;;;;;;5094171;28;20195;-48
2022/07/07 01:58:57;;;;;;;8.73;7.50;;;;;;;;;;5093801;28;20206;-48
2022/07/07 02:01:23;;;;;;;8.67;7.77;;;;;;;;;;5093939;28;20202;-49
2022/07/07 02:03:49;;;;;;;10.03;7.60;;;;;;;;;;5093973;28;20203;-49
2022/07/07 02:06:15;;;;;;;10.93;8.40;;;;;;;;;;5093817;28;20656;-50
2022/07/07 02:08:40;;;;;;;10.53;8.40;;;;;;;;;;5093820;28;20210;-50
2022/07/07 02:11:12;;;;;;;9.27;8.13;;;;;;;;;;5093793;28;20198;-50
2022/07/07 02:13:38;;;;;;;13.20;8.33;;;;;;;;;;5093711;28;20195;-50
2022/07/07 02:16:06;;;;;;;9.10;8.10;;;;;;;;;;5093839;28;20198;-49
2022/07/07 02:18:34;;;;;;;9.53;8.63;;;;;;;;;;5093789;28;20222;-50
2022/07/07 02:21:00;;;;;;;9.80;8.70;;;;;;;;;;5093427;28;20653;-50
2022/07/07 02:23:26;;;;;;;9.30;8.40;;;;;;;;;;5093508;28;20285;-50
2022/07/07 02:25:52;;;;;;;9.67;8.67;;;;;;;;;;5092901;28;20294;-50
2022/07/07 02:28:20;;;;;;;9.37;8.30;;;;;;;;;;5093492;28;20257;-50
2022/07/07 02:30:46;;;;;;;10.00;8.50;;;;;;;;;;5093399;28;20669;-50
2022/07/07 02:33:14;;;;;;;10.37;9.27;;;;;;;;;;5093471;28;20205;-51
2022/07/07 02:35:40;;;;;;;9.20;8.30;;;;;;;;;;5093299;28;20195;-50
2022/07/07 02:38:06;;;;;;;9.57;8.53;;;;;;;;;;5093314;28;20282;-51
2022/07/07 02:40:32;;;;;;;10.10;9.10;;;;;;;;;;5093314;28;20285;-51
2022/07/07 02:42:58;;;;;;;10.73;9.23;;;;;;;;;;5092898;28;20599;-50
2022/07/07 02:45:24;;;;;;;13.13;9.20;;;;;;;;;;5093136;28;20244;-51
2022/07/07 02:47:50;;;;;;;10.50;9.13;;;;;;;;;;5092937;28;20222;-51
2022/07/07 02:50:17;;;;;;;10.60;8.87;;;;;;;;;;5093292;28;20195;-51
2022/07/07 02:52:43;;;;;;;13.83;9.20;;;;;;;;;;5092979;28;20243;-51
2022/07/07 02:55:09;;;;;;;10.27;8.73;;;;;;;;;;5092947;28;20198;-51
2022/07/07 02:57:36;;;;;;;12.57;9.67;;;;;;;;;;5092854;28;20203;-52
2022/07/07 03:00:03;;;;;;;9.93;8.93;;;;;;;;;;5092656;28;20225;-51
2022/07/07 03:02:29;;;;;;;12.67;9.37;;;;;;;;;;5092731;28;20194;-51
2022/07/07 03:04:55;;;;;;;10.43;9.40;;;;;;;;;;5092746;28;20202;-51
2022/07/07 03:07:22;;;;;;;10.40;9.40;;;;;;;;;;5092637;28;20594;-51
2022/07/07 03:09:48;;;;;;;11.10;9.40;;;;;;;;;;5092750;28;20296;-50
2022/07/07 03:12:14;;;;;;;10.13;9.13;;;;;;;;;;5092811;28;20199;-51
2022/07/07 03:14:40;;;;;;;14.43;9.93;;;;;;;;;;5092580;28;20252;-51
2022/07/07 03:17:06;;;;;;;9.83;8.93;;;;;;;;;;5092534;28;20703;-51
2022/07/07 03:19:34;;;;;;;10.57;9.47;;;;;;;;;;5092604;28;20285;-50
2022/07/07 03:22:00;;;;;;;10.93;9.83;;;;;;;;;;5092612;28;20224;-51
2022/07/07 03:24:29;;;;;;;13.80;10.00;;;;;;;;;;5092510;28;20203;-51
2022/07/07 03:26:55;;;;;;;13.30;9.57;;;;;;;;;;5092257;28;20301;-50
2022/07/07 03:29:21;;;;;;;11.50;9.20;;;;;;;;;;5092368;28;20232;-51
2022/07/07 03:31:47;;;;;;;11.97;9.10;;;;;;;;;;5092488;28;20195;-51
2022/07/07 03:34:13;;;;;;;10.83;9.73;;;;;;;;;;5092244;28;20260;-50
2022/07/07 03:36:39;;;;;;;10.07;9.07;;;;;;;;;;5091567;28;20546;-51
2022/07/07 03:39:05;;;;;;;11.07;9.33;;;;;;;;;;5092327;28;20228;-51
2022/07/07 03:41:33;;;;;;;11.93;10.03;;;;;;;;;;5092084;28;20195;-51
2022/07/07 03:43:59;;;;;;;11.93;9.77;;;;;;;;;;5092143;28;20203;-51
2022/07/07 03:46:25;;;;;;;12.87;10.73;;;;;;;;;;5092194;28;20186;-51
2022/07/07 03:48:51;;;;;;;11.43;10.00;;;;;;;;;;5092122;28;20605;-50
2022/07/07 03:51:17;;;;;;;12.23;10.93;;;;;;;;;;5092301;28;20202;-50
2022/07/07 03:53:43;;;;;;;16.37;11.50;;;;;;;;;;5092059;28;20195;-49
2022/07/07 03:56:09;;;;;;;10.90;9.80;;;;;;;;;;5092176;28;20560;-49
2022/07/07 03:58:36;;;;;;;12.43;10.67;;;;;;;;;;5092199;28;20191;-51
2022/07/07 04:01:02;;;;;;;16.07;11.30;;;;;;;;;;5092028;28;20304;-49
2022/07/07 04:03:28;;;;;;;16.63;12.50;;;;;;;;;;5091961;28;20286;-48
2022/07/07 04:05:54;;;;;;;13.00;11.63;;;;;;;;;;5092003;28;20234;-49
2022/07/07 04:08:20;;;;;;;16.83;12.60;;;;;;;;;;5092009;28;20308;-51
2022/07/07 04:10:46;;;;;;;12.27;11.03;;;;;;;;;;5092037;28;20198;-49
2022/07/07 04:13:12;;;;;;;13.33;12.03;;;;;;;;;;5091921;28;20269;-51
2022/07/07 04:15:40;;;;;;;14.00;11.93;;;;;;;;;;5091912;28;20236;-51
2022/07/07 04:18:06;;;;;;;15.67;12.20;;;;;;;;;;5091905;28;20289;-50
2022/07/07 04:20:32;;;;;;;13.43;12.13;;;;;;;;;;5091829;28;20321;-51
2022/07/07 04:22:58;;;;;;;16.63;13.40;;;;;;;;;;5091701;28;20195;-51
2022/07/07 04:25:24;;;;;;;14.00;12.27;;;;;;;;;;5091772;28;20195;-50
2022/07/07 04:27:50;;;;;;;15.70;12.10;;;;;;;;;;5091536;28;20222;-51
2022/07/07 04:30:16;;;;;;;14.23;12.70;;;;;;;;;;5091782;28;20673;-51
2022/07/07 04:32:44;;;;;;;16.10;12.97;;;;;;;;;;5091665;28;20728;-51
2022/07/07 04:35:10;;;;;;;15.47;12.77;;;;;;;;;;5091632;28;20241;-51
2022/07/07 04:37:36;;;;;;;15.87;13.00;;;;;;;;;;5091694;28;20576;-51
2022/07/07 04:40:03;;;;;;;13.77;12.37;;;;;;;;;;5091537;28;20199;-51
2022/07/07 04:42:29;;;;;;;15.67;13.40;;;;;;;;;;5091571;28;20206;-51
2022/07/07 04:44:55;;;;;;;15.57;13.93;;;;;;;;;;5091528;28;20202;-51
2022/07/07 04:47:21;;;;;;;16.20;13.40;;;;;;;;;;5091507;28;20226;-51
2022/07/07 04:49:50;;;;;;;13.90;12.60;;;;;;;;;;5095352;28;20205;-48
2022/07/07 04:52:16;;;;;;;15.50;13.60;;;;;;;;;;5095493;28;20281;-50
2022/07/07 04:54:42;;;;;;;16.00;14.27;;;;;;;;;;5095337;28;20214;-49
2022/07/07 04:57:08;;;;;;;17.50;14.27;;;;;;;;;;5095036;28;20195;-49
2022/07/07 04:59:34;;;;;;;14.93;13.47;;;;;;;;;;5095246;28;20222;-50
2022/07/07 05:02:00;;;;;;;16.93;14.17;;;;;;;;;;5095061;28;20253;-51
2022/07/07 05:04:26;;;;;;;16.23;14.20;;;;;;;;;;5095053;28;20234;-50
2022/07/07 05:06:53;;;;;;;14.40;12.90;;;;;;;;;;5094893;28;20466;-50
2022/07/07 05:09:19;;;;;;;13.47;12.07;;;;;;;;;;5095048;28;20204;-49
2022/07/07 05:11:45;;;;;;;15.53;12.57;;;;;;;;;;5094996;28;20195;-46
2022/07/07 05:14:11;;;;;;;14.47;12.13;;;;;;;;;;5094502;28;20294;-47
2022/07/07 05:16:37;;;;;;;12.70;11.20;;;;;;;;;;5094788;28;20221;-50
2022/07/07 05:19:04;;;;;;;12.30;10.97;;;;;;;;;;5094431;28;20190;-51
2022/07/07 05:21:29;;;;;;;11.63;10.53;;;;;;;;;;5094604;28;20660;-50
2022/07/07 05:23:57;;;;;;;11.97;10.73;;;;;;;;;;5094648;28;20218;-49
2022/07/07 05:26:23;;;;;;;11.83;10.03;;;;;;;;;;5094526;28;20203;-48
2022/07/07 05:28:49;;;;;;;11.83;10.60;;;;;;;;;;5094364;28;20203;-51
2022/07/07 05:31:15;;;;;;;11.90;10.60;;;;;;;;;;5094482;28;20191;-50
2022/07/07 05:33:41;;;;;;;11.63;10.50;;;;;;;;;;5094377;28;20222;-50
2022/07/07 05:36:08;;;;;;;11.30;10.20;;;;;;;;;;5094339;28;20207;-51
2022/07/07 05:38:34;;;;;;;12.67;10.90;;;;;;;;;;5094348;28;20202;-52
2022/07/07 05:41:01;;;;;;;10.23;9.23;;;;;;;;;;5094273;28;20252;-52
2022/07/07 05:43:27;;;;;;;10.37;9.30;;;;;;;;;;5094430;28;20202;-52
2022/07/07 05:45:54;;;;;;;9.97;9.07;;;;;;;;;;5094190;28;20225;-52
2022/07/07 05:48:20;;;;;;;9.77;8.87;;;;;;;;;;5094140;28;20252;-51
2022/07/07 05:50:46;;;;;;;10.20;9.20;;;;;;;;;;5094107;28;20195;-51
2022/07/07 05:53:12;;;;;;;9.50;8.60;;;;;;;;;;5093801;28;20267;-52
2022/07/07 05:55:38;;;;;;;8.90;8.00;;;;;;;;;;5093926;28;20198;-52
2022/07/07 05:58:05;;;;;;;7.97;7.20;;;;;;;;;;5093921;28;20215;-53
2022/07/07 06:00:31;;;;;;;8.43;7.43;;;;;;;;;;5092827;28;20227;-53
2022/07/07 06:02:57;;;;;;;7.90;7.20;;;;;;;;;;5093606;28;20205;-52
2022/07/07 06:05:23;;;;;;;7.37;6.67;;;;;;;;;;5093663;28;20195;-52
2022/07/07 06:07:49;;;;;;;7.53;6.90;;;;;;;;;;5093722;28;20219;-51
2022/07/07 06:10:15;;;;;;;7.80;7.07;;;;;;;;;;5093819;28;20216;-51
2022/07/07 06:12:42;;;;;;;7.63;6.83;;;;;;;;;;5093359;28;20199;-51
2022/07/07 06:15:10;;;;;;;7.33;6.70;;;;;;;;;;5093464;28;20219;-51
2022/07/07 06:17:36;;;;;;;8.47;6.63;;;;;;;;;;5093647;28;20566;-51
2022/07/07 06:20:02;;;;;;;7.80;6.47;;;;;;;;;;5093116;28;20238;-50
2022/07/07 06:22:28;;;;;;;6.97;5.30;;;;;;;;;;5093614;28;20606;-49
2022/07/07 06:24:55;;;;;;;7.43;6.07;;;;;;;;;;5093524;28;20202;-50
2022/07/07 06:27:21;;;;;;;6.33;5.83;;;;;;;;;;5093467;28;20223;-49
2022/07/07 06:29:47;;;;;;;6.30;5.70;;;;;;;;;;5093415;28;20198;-49
2022/07/07 06:32:15;;;;;;;5.97;5.37;;;;;;;;;;5093402;28;20561;-52
2022/07/07 06:34:41;;;;;;;5.27;4.77;;;;;;;;;;5093467;28;20405;-51
2022/07/07 06:37:07;;;;;;;5.07;4.67;;;;;;;;;;5093337;28;20248;-51
2022/07/07 06:39:33;;;;;;;4.80;4.40;;;;;;;;;;5093533;28;20194;-51
2022/07/07 06:41:59;;;;;;;5.00;4.33;;;;;;;;;;5092785;28;20203;-50
2022/07/07 06:44:30;;;;;;;4.53;4.20;;;;;;;;;;5092995;28;20213;-48
2022/07/07 06:46:57;;;;;;;4.33;4.00;;;;;;;;;;5092930;28;20214;-48
2022/07/07 06:49:24;;;;;;;4.83;4.03;;;;;;;;;;5092842;28;20654;-49
2022/07/07 06:51:50;;;;;;;6.80;4.90;;;;;;;;;;5092968;28;20199;-50
2022/07/07 06:54:16;;;;;;;4.50;4.03;;;;;;;;;;5093114;28;20555;-51
2022/07/07 06:56:42;;;;;;;3.63;3.10;;;;;;;;;;5092842;28;20224;-51
2022/07/07 06:59:08;;;;;;;3.20;2.67;;;;;;;;;;5092748;28;20191;-51
2022/07/07 07:01:34;;;;;;;3.13;2.73;;;;;;;;;;5092845;28;20195;-50
2022/07/07 07:04:00;;;;;;;2.60;2.40;;;;;;;;;;5092722;28;20539;-50
2022/07/07 07:06:28;;;;;;;3.00;2.10;;;;;;;;;;5092743;28;20195;-50
2022/07/07 07:08:54;;;;;;;2.50;1.90;;;;;;;;;;5092577;28;20227;-50
2022/07/07 07:11:20;;;;;;;3.50;2.00;;;;;;;;;;5092668;28;20201;-50
2022/07/07 07:13:49;;;;;;;2.17;1.90;;;;;;;;;;5092623;28;20249;-50
2022/07/07 07:16:15;;;;;;;3.57;1.70;;;;;;;;;;5092489;28;20596;-50
2022/07/07 07:18:41;;;;;;;2.10;1.90;;;;;;;;;;5092397;28;20187;-50
2022/07/07 07:21:07;;;;;;;1.97;1.67;;;;;;;;;;5092155;28;20597;-51
2022/07/07 07:23:35;;;;;;;1.60;1.50;;;;;;;;;;5092639;28;20206;-51
2022/07/07 07:26:01;;;;;;;1.90;1.70;;;;;;;;;;5092464;28;20281;-50
2022/07/07 07:28:27;;;;;;;1.73;1.43;;;;;;;;;;5092264;28;20346;-49
2022/07/07 07:30:53;;;;;;;2.13;1.80;;;;;;;;;;5092315;28;20561;-50
2022/07/07 07:33:19;;;;;;;1.60;1.50;;;;;;;;;;5086954;28;20199;-50
2022/07/07 07:35:44;;;;;;;1.90;1.70;;;;;;;;;;5092360;28;20245;-50
2022/07/07 07:38:10;;;;;;;2.90;1.80;;;;;;;;;;5092155;28;20203;-51
2022/07/07 07:40:38;;;;;;;2.90;1.83;;;;;;;;;;5092287;28;20203;-49
2022/07/07 07:43:04;;;;;;;1.50;1.40;;;;;;;;;;5090059;28;20615;-50
2022/07/07 07:45:30;;;;;;;2.17;1.70;;;;;;;;;;5092034;28;20218;-49
2022/07/07 07:47:56;;;;;;;2.23;1.80;;;;;;;;;;5091820;28;20588;-48
2022/07/07 07:50:23;;;;;;;2.83;1.93;;;;;;;;;;5092118;28;20195;-49
2022/07/07 07:52:49;;;;;;;1.70;1.60;;;;;;;;;;5092143;28;20200;-50
2022/07/07 07:55:16;;;;;;;2.13;1.63;;;;;;;;;;5092030;28;20206;-50
2022/07/07 07:57:44;;;;;;;1.50;1.40;;;;;;;;;;5092059;28;20190;-49
2022/07/07 08:00:11;;;;;;;1.50;1.23;;;;;;;;;;5091487;28;20839;-49
2022/07/07 08:02:37;;;;;;;1.60;1.17;;;;;;;;;;5092153;28;20234;-50
2022/07/07 08:05:03;;;;;;;1.73;1.23;;;;;;;;;;5092210;28;20199;-49
2022/07/07 08:07:30;;;;;;;2.00;1.33;;;;;;;;;;5091890;28;20660;-50
2022/07/07 08:09:56;;;;;;;3.90;1.43;;;;;;;;;;5091993;28;20279;-49
2022/07/07 08:12:22;;;;;;;3.33;1.40;;;;;;;;;;5090070;28;20200;-49
2022/07/07 08:14:49;;;;;;;3.33;1.50;;;;;;;;;;5091869;28;20186;-49
2022/07/07 08:17:15;;;;;;;1.50;1.40;;;;;;;;;;5091709;28;20233;-49
2022/07/07 08:19:41;;;;;;;1.40;1.30;;;;;;;;;;5091485;28;20259;-49
2022/07/07 08:22:07;;;;;;;3.37;1.40;;;;;;;;;;5091460;28;20204;-49
2022/07/07 08:24:33;;;;;;;1.97;1.30;;;;;;;;;;5095514;28;20202;-50
2022/07/07 08:26:59;;;;;;;2.10;1.40;;;;;;;;;;5095481;28;20248;-48
2022/07/07 08:29:25;;;;;;;1.20;1.03;;;;;;;;;;5095601;28;20197;-48
2022/07/07 08:31:52;;;;;;;1.40;1.30;;;;;;;;;;5095486;28;20197;-48
2022/07/07 08:34:19;;;;;;;3.93;1.33;;;;;;;;;;5095452;28;20215;-49
2022/07/07 08:36:45;;;;;;;2.10;1.50;;;;;;;;;;5095267;28;20205;-48
2022/07/07 08:39:11;;;;;;;1.50;1.40;;;;;;;;;;5095334;28;20201;-48
2022/07/07 08:41:37;;;;;;;1.67;1.50;;;;;;;;;;5095317;28;20206;-49
2022/07/07 08:44:03;;;;;;;2.70;1.47;;;;;;;;;;5095358;28;20208;-49
2022/07/07 08:46:29;;;;;;;2.33;1.70;;;;;;;;;;5095103;28;20514;-49
2022/07/07 08:48:57;;;;;;;2.20;1.70;;;;;;;;;;5095186;28;20228;-48
2022/07/07 08:51:23;;;;;;;3.30;1.93;;;;;;;;;;5092849;28;20199;-47
2022/07/07 08:53:49;;;;;;;2.07;1.83;;;;;;;;;;5092326;28;20217;-48
2022/07/07 08:56:16;;;;;;;1.80;1.70;;;;;;;;;;5095192;28;20218;-48
2022/07/07 08:58:43;;;;;;;3.70;1.80;;;;;;;;;;5092035;28;20244;-48
2022/07/07 09:01:09;;;;;;;2.17;1.67;;;;;;;;;;5094722;28;20212;-47
2022/07/07 09:03:35;;;;;;;1.67;1.40;;;;;;;;;;5093965;28;20202;-47
2022/07/07 09:06:03;;;;;;;2.40;1.60;;;;;;;;;;5094966;28;20200;-48
2022/07/07 09:08:30;;;;;;;1.50;1.40;;;;;;;;;;5094651;28;20224;-49
2022/07/07 09:10:56;;;;;;;1.30;1.20;;;;;;;;;;5094745;28;20207;-51
2022/07/07 09:13:23;;;;;;;1.80;1.10;;;;;;;;;;5094754;28;20200;-49
2022/07/07 09:15:50;;;;;;;1.63;1.33;;;;;;;;;;5094748;28;20207;-51
2022/07/07 09:18:28;;;;;;;1.30;1.20;;;;;;;;;;5094644;28;20192;-51
2022/07/07 09:20:54;;;;;;;2.03;1.30;;;;;;;;;;5094617;28;20257;-49
2022/07/07 09:23:22;;;;;;;1.30;1.20;;;;;;;;;;5094684;28;20625;-48
2022/07/07 09:25:48;;;;;;;1.23;1.07;;;;;;;;;;5094738;28;20212;-48
2022/07/07 09:28:14;;;;;;;1.20;0.93;;;;;;;;;;5094476;28;20223;-48
2022/07/07 09:30:40;;;;;;;1.33;1.23;;;;;;;;;;5094655;28;20231;-50
2022/07/07 09:33:07;;;;;;;1.30;0.97;;;;;;;;;;5094274;28;20654;-51
2022/07/07 09:38:22;;;;;;;2.37;1.10;;;;;;;;;;5094551;28;20674;-50
2022/07/07 09:40:54;;;;;;;1.40;1.30;;;;;;;;;;5094499;28;20203;-50
2022/07/07 09:43:20;;;;;;;1.90;1.57;;;;;;;;;;5094219;28;20212;-50
2022/07/07 09:45:47;;;;;;;2.50;1.37;;;;;;;;;;5094276;28;20192;-50
2022/07/07 09:48:13;;;;;;;2.37;1.50;;;;;;;;;;5094077;28;20244;-50
2022/07/07 09:50:39;;;;;;;2.97;1.30;;;;;;;;;;5092510;28;20722;-49
2022/07/07 09:53:07;;;;;;;2.63;1.30;;;;;;;;;;5093884;28;20327;-49
2022/07/07 09:55:33;;;;;;;6.60;2.20;;;;;;;;;;5094265;28;20201;-48
2022/07/07 09:58:00;;;;;;;3.63;1.70;;;;;;;;;;5093928;28;20197;-49
2022/07/07 10:00:27;;;;;;;5.87;2.40;;;;;;;;;;5094094;28;20221;-49
2022/07/07 10:02:54;;;;;;;4.17;2.07;;;;;;;;;;5093901;28;20258;-49
2022/07/07 10:05:20;;;;;;;3.07;1.80;;;;;;;;;;5093972;28;20207;-49
2022/07/07 10:07:50;;;;;;;4.60;1.93;;;;;;;;;;5093900;28;20219;-49
2022/07/07 10:10:19;;;;;;;4.30;2.37;;;;;;;;;;5093878;28;20194;-50
2022/07/07 10:12:46;;;;;;;4.63;2.00;;;;;;;;;;5093868;28;20192;-49
2022/07/07 10:15:13;;;;;;;7.33;2.60;;;;;;;;;;5093613;28;20679;-49
2022/07/07 10:17:40;;;;;;;4.27;2.47;;;;;;;;;;5093647;28;20201;-49
2022/07/07 10:20:07;;;;;;;5.07;2.00;;;;;;;;;;5093234;28;20237;-50
2022/07/07 10:22:33;;;;;;;4.20;1.80;;;;;;;;;;5093463;28;20557;-50
2022/07/07 10:25:00;;;;;;;4.10;1.87;;;;;;;;;;5093137;28;20740;-50
2022/07/07 10:27:26;;;;;;;4.13;2.10;;;;;;;;;;5093412;28;20818;-50
2022/07/07 10:29:53;;;;;;;3.50;1.70;;;;;;;;;;5093300;28;20663;-49
2022/07/07 10:32:29;;;;;;;3.47;2.07;;;;;;;;;;5093161;28;20262;-49
2022/07/07 10:34:56;;;;;;;4.13;1.80;;;;;;;;;;5093332;28;20192;-48
2022/07/07 10:37:23;;;;;;;3.37;1.70;;;;;;;;;;5093441;28;20216;-48
2022/07/07 10:39:50;;;;;;;3.53;1.80;;;;;;;;;;5093264;28;20198;-48
2022/07/07 10:42:29;;;;;;;4.03;2.10;;;;;;;;;;5091206;28;20202;-49
2022/07/07 10:44:55;;;;;;;2.23;1.60;;;;;;;;;;5092900;28;20190;-49
2022/07/07 10:47:30;;;;;;;4.23;1.60;;;;;;;;;;5092525;28;20230;-49
2022/07/07 10:49:57;;;;;;;2.77;1.70;;;;;;;;;;5092983;28;20209;-51
2022/07/07 10:52:23;;;;;;;3.73;1.70;;;;;;;;;;5093081;28;20198;-51
2022/07/07 10:54:51;;;;;;;6.20;1.93;;;;;;;;;;5093057;28;20199;-51
2022/07/07 10:57:17;;;;;;;6.30;2.03;;;;;;;;;;5092582;28;20195;-51
2022/07/07 10:59:59;;;;;;;4.77;1.90;;;;;;;;;;5092952;28;20222;-52
2022/07/07 11:02:30;;;;;;;7.00;1.80;;;;;;;;;;5092838;28;20688;-51
2022/07/07 11:04:56;;;;;;;8.37;2.20;;;;;;;;;;5092885;28;20255;-50
2022/07/07 11:07:24;;;;;;;4.37;1.90;;;;;;;;;;5092905;28;20226;-51
2022/07/07 11:09:57;;;;;;;3.67;1.70;;;;;;;;;;5092832;28;20205;-52
2022/07/07 11:12:36;;;;;;;4.67;1.97;;;;;;;;;;5092779;28;20198;-53
2022/07/07 11:15:32;;;;;;;5.70;2.37;;;;;;;;;;5092770;28;20203;-52
2022/07/07 11:18:09;;;;;;;7.07;2.07;;;;;;;;;;5092424;28;20201;-52
2022/07/07 11:20:36;;;;;;;5.57;2.27;;;;;;;;;;5092550;28;20262;-53
2022/07/07 11:23:06;;;;;;;5.13;2.13;;;;;;;;;;5090751;28;20202;-53
2022/07/07 11:25:33;;;;;;;5.17;2.27;;;;;;;;;;5092407;28;20217;-48
2022/07/07 11:27:59;;;;;;;3.40;1.93;;;;;;;;;;5092039;28;20226;-48
2022/07/07 11:30:25;;;;;;;7.23;2.30;;;;;;;;;;5092598;28;20198;-49
2022/07/07 11:32:52;;;;;;;3.37;2.00;;;;;;;;;;5092480;28;20516;-49
2022/07/07 11:35:19;;;;;;;7.90;2.13;;;;;;;;;;5092108;28;20263;-49
2022/07/07 11:37:46;;;;;;;5.60;1.87;;;;;;;;;;5092527;28;20552;-48
2022/07/07 11:40:23;;;;;;;7.03;2.00;;;;;;;;;;5092226;28;20251;-48
2022/07/07 11:42:49;;;;;;;5.07;2.23;;;;;;;;;;5092408;28;20194;-48
2022/07/07 11:45:18;;;;;;;3.73;1.80;;;;;;;;;;5092292;28;20207;-48
2022/07/07 11:47:44;;;;;;;5.67;1.73;;;;;;;;;;5092154;28;20228;-48
2022/07/07 11:50:10;;;;;;;4.80;1.97;;;;;;;;;;5092024;28;20203;-48
2022/07/07 11:52:38;;;;;;;4.47;1.70;;;;;;;;;;5092305;28;20195;-48
2022/07/07 11:55:05;;;;;;;4.17;2.10;;;;;;;;;;5092260;28;20298;-49
2022/07/07 11:57:32;;;;;;;4.40;1.70;;;;;;;;;;5091386;28;20194;-49
2022/07/07 12:00:11;;;;;;;10.00;1.87;;;;;;;;;;5091926;28;20755;-48
2022/07/07 12:02:37;;;;;;;5.00;1.73;;;;;;;;;;5092254;28;20195;-48
2022/07/07 12:05:03;;;;;;;4.63;2.00;;;;;;;;;;5092174;28;20278;-47
2022/07/07 12:07:29;;;;;;;3.00;1.40;;;;;;;;;;5092107;28;20262;-47
2022/07/07 12:09:56;;;;;;;5.57;1.90;;;;;;;;;;5092084;28;20241;-47
2022/07/07 12:12:22;;;;;;;4.13;1.80;;;;;;;;;;5092057;28;20203;-47
2022/07/07 12:14:48;;;;;;;2.97;1.57;;;;;;;;;;5092118;28;20195;-47
2022/07/07 12:17:29;;;;;;;2.13;1.50;;;;;;;;;;5091836;28;20259;-47
2022/07/07 12:19:55;;;;;;;3.73;1.57;;;;;;;;;;5091612;28;20329;-47
2022/07/07 12:22:32;;;;;;;3.90;1.30;;;;;;;;;;5091937;28;20279;-48
2022/07/07 12:25:01;;;;;;;4.13;1.83;;;;;;;;;;5091894;28;20210;-47
2022/07/07 12:27:27;;;;;;;3.47;1.53;;;;;;;;;;5091896;28;20227;-47
2022/07/07 12:30:00;;;;;;;4.30;1.80;;;;;;;;;;5091936;28;20564;-47
2022/07/07 12:32:26;;;;;;;3.13;1.60;;;;;;;;;;5091820;28;20218;-47
2022/07/07 12:34:52;;;;;;;3.00;1.47;;;;;;;;;;5091886;28;20237;-47
2022/07/07 12:37:18;;;;;;;1.70;1.43;;;;;;;;;;5091894;28;20241;-47
2022/07/07 12:39:44;;;;;;;2.83;1.10;;;;;;;;;;5091906;28;20191;-48
2022/07/07 12:42:23;;;;;;;1.90;0.83;;;;;;;;;;5091591;28;20567;-48
2022/07/07 12:44:49;;;;;;;3.80;1.00;;;;;;;;;;5091958;28;20565;-49
2022/07/07 12:47:16;;;;;;;2.03;1.10;;;;;;;;;;5091622;28;20199;-47
2022/07/07 12:49:52;;;;;;;1.70;1.07;;;;;;;;;;5091364;28;20209;-48
2022/07/07 12:52:18;;;;;;;3.07;0.80;;;;;;;;;;5091838;28;20198;-49
2022/07/07 12:54:44;;;;;;;1.90;1.07;;;;;;;;;;5091861;28;20202;-48
2022/07/07 12:57:13;;;;;;;1.60;1.00;;;;;;;;;;5091487;28;20230;-47
2022/07/07 12:59:40;;;;;;;1.33;1.20;;;;;;;;;;5091645;28;20223;-48
2022/07/07 13:02:06;;;;;;;1.23;1.03;;;;;;;;;;5091608;28;20666;-47
2022/07/07 13:04:32;;;;;;;3.00;1.17;;;;;;;;;;5091557;28;20191;-47
2022/07/07 13:06:58;;;;;;;3.90;1.10;;;;;;;;;;5091651;28;20194;-47
2022/07/07 13:09:24;;;;;;;2.77;1.20;;;;;;;;;;5093074;28;20318;-48
2022/07/07 13:11:51;;;;;;;1.53;1.00;;;;;;;;;;5095192;28;20277;-47
2022/07/07 13:14:18;;;;;;;1.93;1.10;;;;;;;;;;5095123;28;20195;-51
2022/07/07 13:16:44;;;;;;;2.30;1.40;;;;;;;;;;5095137;28;20619;-51
2022/07/07 13:19:10;;;;;;;3.53;1.47;;;;;;;;;;5094805;28;20222;-54
2022/07/07 13:21:37;;;;;;;3.80;1.80;;;;;;;;;;5095050;28;20222;-52
2022/07/07 13:24:03;;;;;;;3.93;1.70;;;;;;;;;;5094984;28;20199;-52
2022/07/07 13:26:29;;;;;;;3.20;1.60;;;;;;;;;;5094850;28;20346;-54
2022/07/07 13:28:55;;;;;;;3.27;1.70;;;;;;;;;;5094546;28;20254;-55
2022/07/07 13:31:22;;;;;;;7.73;2.47;;;;;;;;;;5094371;28;20195;-55
2022/07/07 13:33:48;;;;;;;9.20;2.80;;;;;;;;;;5094673;28;20578;-55
2022/07/07 13:36:14;;;;;;;8.63;2.67;;;;;;;;;;5094317;28;20206;-53
2022/07/07 13:38:40;;;;;;;9.67;2.70;;;;;;;;;;5094418;28;20229;-53
2022/07/07 13:41:06;;;;;;;9.93;2.73;;;;;;;;;;5094420;28;20262;-53
2022/07/07 13:43:32;;;;;;;10.90;2.73;;;;;;;;;;5094751;28;20542;-52
2022/07/07 13:45:58;;;;;;;12.80;3.23;;;;;;;;;;5094487;28;20208;-52
2022/07/07 13:48:26;;;;;;;6.90;3.07;;;;;;;;;;5094567;28;20217;-54
2022/07/07 13:50:52;;;;;;;7.40;2.57;;;;;;;;;;5094464;28;20205;-54
2022/07/07 13:53:19;;;;;;;8.83;3.10;;;;;;;;;;5094363;28;20202;-52
2022/07/07 13:55:45;;;;;;;7.93;2.47;;;;;;;;;;5094278;28;20223;-52
2022/07/07 13:58:11;;;;;;;15.60;3.20;;;;;;;;;;5094220;28;20198;-52
2022/07/07 14:00:37;;;;;;;9.63;3.03;;;;;;;;;;5094187;28;20225;-52
2022/07/07 14:03:03;;;;;;;7.23;2.77;;;;;;;;;;5094250;28;20224;-52
2022/07/07 14:05:31;;;;;;;11.70;2.80;;;;;;;;;;5094252;28;20222;-52
2022/07/07 14:07:59;;;;;;;8.70;2.30;;;;;;;;;;5093982;28;20220;-53
2022/07/07 14:10:25;;;;;;;11.10;3.07;;;;;;;;;;5093771;28;20206;-53
2022/07/07 14:12:51;;;;;;;9.33;2.90;;;;;;;;;;5093726;28;20198;-53
2022/07/07 14:15:17;;;;;;;10.60;3.27;;;;;;;;;;5093710;28;20229;-53
2022/07/07 14:17:43;;;;;;;11.50;3.47;;;;;;;;;;5093546;28;20183;-52
2022/07/07 14:20:10;;;;;;;9.90;2.90;;;;;;;;;;5092798;28;20238;-53
2022/07/07 14:22:37;;;;;;;9.20;2.90;;;;;;;;;;5093418;28;20268;-53
2022/07/07 14:25:04;;;;;;;13.43;3.60;;;;;;;;;;5093619;28;20216;-53
2022/07/07 14:27:30;;;;;;;9.63;3.40;;;;;;;;;;5093594;28;20228;-53
2022/07/07 14:29:59;;;;;;;14.03;3.83;;;;;;;;;;5093546;28;20201;-53
2022/07/07 14:32:25;;;;;;;12.60;3.00;;;;;;;;;;5093298;28;20658;-53
2022/07/07 14:34:51;;;;;;;9.40;2.50;;;;;;;;;;5093235;28;20200;-52
2022/07/07 14:37:17;;;;;;;7.63;2.50;;;;;;;;;;5093466;28;20200;-53
2022/07/07 14:39:44;;;;;;;10.77;3.30;;;;;;;;;;5093376;28;20199;-54